Hauptseite
METAR-TAF:

METAR-TAF

Flughäfen :

El Salvador, El Salvador

Flughafen San Salvador

Breite: 13-26N, Länge: 089-03W, Höhe: 25 m

Beobachtung

Neuester Wetterbericht von vor 5 Minuten, um 23:50 UTC
Wind 5 kt aus West/Südwest
Temperatur 28°C
Luftfeuchtigkeit 55%
Luftdruck 1011 hPa
Sichtweite 10 km oder mehr
keine Wolken unter 1500 m und keine Kumulonimbus oder Gewitterwolken

METAR: MSLP 242350Z 25005KT CAVOK 28/18 Q1010 A2985 NOSIG

Zeit: 17:55 (23:55 UTC)

Prognose

Neuester Wetterbericht von vor 2 Stunden und 30 Minuten, um 21:25 UTC
Gültige Prognose vom 25 um 00 UTC bis 25 um 24 UTC
Wind 3 kt aus unterschiedlichen Richtungen
Sichtweite 10 km oder mehr
keine Wolken unter 1500 m und keine Kumulonimbus oder Gewitterwolken
Ab 25 um 0600 UTC
Wind 10 kt aus Nordost
Ab 25 um 1800 UTC
Wind 10 kt aus Südwest

TAF: MSLP 242125Z 2500/2524 VRB03KT CAVOK TX36/2518Z TN21/2510Z FM250600 04010KT FM251800 22010KT

Wetterbeobachtungen und Prognosen von mehr als 4000 Flughäfen (METAR und TAF Bericht).

Die verfügbaren Stationen werden durch gelbe und rote Markierungen auf der Karte dargestellt.

Führen Sie die Maus auf sie, um den Namen der Station zu sehen.

Darauf klicken, um die Beobachtung von Wetterbeobachtungen und Prognosen zu sehen.

Um die Karte zu ändern : klicken Sie auf den grünen Tasten mit einem schwarzen Kreuz Zum Vergrößern, auf den grünen Button mit einem Gedankenstrich zu verkleinern, oder auf die grünen Pfeile für benachbarte Karten.


METAR-TAF: